Time;durP1;ratioP1;P1;durP2;ratioP2;P2;SDS_P1;SDS_P2;PMS_P1;PMS_P2;Temp;Humidity;BMP_temperature;BMP_pressure;BME280_temperature;BME280_humidity;BME280_pressure;Samples;Min_cycle;Max_cycle;Signal;HPM_P1;HPM_P2
2020/12/09 00:01:16;;;;;;;;;50.00;40.00;;;;;8.01;47.35;98409.91;6138502;28;96880;-58
2020/12/09 00:04:18;;;;;;;;;47.00;36.40;;;;;8.16;47.53;98425.69;6138256;28;97416;-58
2020/12/09 00:07:19;;;;;;;;;48.50;38.50;;;;;8.06;47.09;98401.19;6138198;28;96682;-58
2020/12/09 00:10:21;;;;;;;;;46.00;38.00;;;;;8.08;47.43;98428.63;6137989;28;96771;-58
2020/12/09 00:13:22;;;;;;;;;47.00;39.00;;;;;8.01;47.34;98435.91;6138840;28;97634;-58
2020/12/09 00:16:24;;;;;;;;;44.40;35.40;;;;;7.80;47.26;98405.69;6138890;28;97549;-58
2020/12/09 00:19:25;;;;;;;;;48.40;37.40;;;;;7.93;47.42;98433.47;6137635;28;97487;-58
2020/12/09 00:22:27;;;;;;;;;42.80;35.40;;;;;7.87;47.21;98423.63;6147103;28;98225;-58
2020/12/09 00:25:28;;;;;;;;;51.20;39.80;;;;;8.08;47.25;98440.19;6162321;28;97695;-58
2020/12/09 00:28:30;;;;;;;;;47.20;37.20;;;;;8.01;47.05;98430.53;6162050;28;96529;-58
2020/12/09 00:31:32;;;;;;;;;42.60;35.00;;;;;8.12;46.81;98440.56;6161364;28;98616;-58
2020/12/09 00:34:34;;;;;;;;;45.00;37.00;;;;;7.97;47.02;98442.72;6162090;28;96625;-58
2020/12/09 00:37:36;;;;;;;;;46.20;36.20;;;;;7.91;47.00;98441.75;6161096;28;97076;-58
2020/12/09 00:40:37;;;;;;;;;48.00;37.00;;;;;7.90;46.89;98445.47;6160622;28;96627;-58
2020/12/09 00:43:39;;;;;;;;;47.20;37.80;;;;;7.80;47.12;98451.31;6161006;28;96640;-58
2020/12/09 00:46:40;;;;;;;;;44.00;36.00;;;;;7.80;47.21;98456.66;6159248;28;98475;-58
2020/12/09 00:49:57;;;;;;;;;47.00;36.00;;;;;7.69;47.45;98457.34;6175170;28;96934;-58
2020/12/09 00:53:08;;;;;;;;;45.00;36.20;;;;;7.68;47.32;98460.22;6157722;28;97196;-58
2020/12/09 00:56:10;;;;;;;;;44.40;35.00;;;;;7.67;47.36;98454.03;6160092;28;97666;-58
2020/12/09 00:59:12;;;;;;;;;43.60;35.00;;;;;7.73;47.30;98457.72;6160338;28;97129;-58
2020/12/09 01:02:15;;;;;;;;;45.25;36.25;;;;;7.78;47.18;98452.53;6156814;28;96784;-58
2020/12/09 01:05:16;;;;;;;;;45.00;35.60;;;;;7.79;46.86;98455.00;6150850;28;97320;-58
2020/12/09 01:08:18;;;;;;;;;41.20;34.60;;;;;7.08;47.02;98330.97;6138446;28;97546;-58
2020/12/09 01:11:23;;;;;;;;;43.75;36.00;;;;;7.75;46.89;98443.06;6139070;28;96560;-58
2020/12/09 01:14:24;;;;;;;;;40.50;33.00;;;;;7.66;47.12;98449.72;6154490;28;96575;-58
2020/12/09 01:17:25;;;;;;;;;41.40;34.00;;;;;7.64;47.07;98454.47;6137946;28;96605;-58
2020/12/09 01:20:35;;;;;;;;;41.00;34.40;;;;;7.70;46.77;98463.53;6138021;28;97406;-58
2020/12/09 01:23:37;;;;;;;;;43.00;35.00;;;;;7.71;46.71;98449.91;6138009;28;97340;-58
2020/12/09 01:26:38;;;;;;;;;43.00;34.00;;;;;7.75;46.72;98451.13;6138119;28;97070;-58
2020/12/09 01:29:40;;;;;;;;;37.50;32.00;;;;;7.66;46.82;98449.72;6150900;28;97528;-58
2020/12/09 01:32:41;;;;;;;;;39.00;33.00;;;;;7.71;46.68;98460.63;6161435;28;97384;-58
2020/12/09 01:35:43;;;;;;;;;43.00;33.00;;;;;7.71;46.95;98457.97;6161663;28;96423;-58
2020/12/09 01:38:44;;;;;;;;;42.00;33.00;;;;;7.72;46.78;98453.41;6161676;28;96639;-58
2020/12/09 01:41:47;;;;;;;;;41.20;33.20;;;;;7.80;46.69;98442.44;6140175;28;97412;-58
2020/12/09 01:44:48;;;;;;;;;39.60;32.20;;;;;7.80;46.36;98437.06;6153516;28;97416;-58
2020/12/09 01:47:50;;;;;;;;;37.60;32.00;;;;;7.74;46.53;98433.38;6136565;28;98430;-58
2020/12/09 01:50:52;;;;;;;;;39.00;32.60;;;;;7.70;46.43;98442.88;6137107;28;96740;-58
2020/12/09 01:53:56;;;;;;;;;38.00;31.00;;;;;7.70;46.44;98447.44;6137382;28;97491;-58
2020/12/09 01:57:12;;;;;;;;;38.00;31.20;;;;;7.77;46.34;98446.34;6136091;28;98313;-58
2020/12/09 02:00:13;;;;;;;;;40.60;32.60;;;;;7.83;46.25;98442.81;6138056;28;97326;-58
2020/12/09 02:03:16;;;;;;;;;41.00;32.00;;;;;7.82;46.05;98443.84;6152382;28;98353;-58
2020/12/09 02:06:18;;;;;;;;;32.20;30.00;;;;;7.67;46.22;98455.91;6161325;28;97394;-58
2020/12/09 02:09:21;;;;;;;;;39.00;33.00;;;;;7.63;46.45;98457.34;6159557;28;97251;-58
2020/12/09 02:12:23;;;;;;;;;36.60;32.00;;;;;7.61;46.42;98454.06;6161282;28;96482;-58
2020/12/09 02:15:24;;;;;;;;;35.75;31.00;;;;;7.58;46.40;98455.31;6161126;28;97656;-58
2020/12/09 02:18:27;;;;;;;;;35.00;30.00;;;;;7.52;46.56;98440.09;6157736;28;96542;-58
2020/12/09 02:21:33;;;;;;;;;35.00;30.00;;;;;7.48;46.43;98457.63;6155024;28;97726;-58
2020/12/09 02:24:34;;;;;;;;;42.50;35.00;;;;;7.53;46.61;98449.75;6135172;28;97568;-58
2020/12/09 02:27:35;;;;;;;;;33.00;30.60;;;;;7.34;47.50;98447.97;6144400;28;97420;-58
2020/12/09 02:30:37;;;;;;;;;39.60;33.00;;;;;7.27;46.87;98450.69;6158521;28;98223;-58
2020/12/09 02:33:39;;;;;;;;;37.75;32.00;;;;;7.29;47.09;98453.16;6159865;28;97008;-58
2020/12/09 02:36:40;;;;;;;;;40.50;32.25;;;;;7.37;46.89;98447.56;6160793;28;97815;-58
2020/12/09 02:39:41;;;;;;;;;35.60;31.60;;;;;7.40;46.77;98447.97;6160692;28;98147;-58
2020/12/09 02:42:43;;;;;;;;;36.20;31.00;;;;;7.42;46.52;98447.75;6145915;28;97654;-58
2020/12/09 02:45:46;;;;;;;;;39.50;33.00;;;;;7.34;46.61;98438.09;6160248;28;98122;-58
2020/12/09 02:48:49;;;;;;;;;33.75;30.75;;;;;7.37;46.76;98453.75;6150597;28;96651;-58
2020/12/09 02:51:51;;;;;;;;;35.50;31.25;;;;;7.41;46.37;98462.19;6137814;28;97081;-58
2020/12/09 02:54:53;;;;;;;;;38.60;33.00;;;;;7.34;46.32;98451.50;6136836;28;97059;-58
2020/12/09 02:57:54;;;;;;;;;39.50;32.50;;;;;7.38;46.43;98454.56;6136603;28;97311;-58
2020/12/09 03:00:56;;;;;;;;;36.00;31.25;;;;;7.42;46.30;98449.63;6143414;28;96565;-58
2020/12/09 03:03:57;;;;;;;;;32.60;28.60;;;;;7.06;47.28;98453.63;6144291;28;98551;-58
2020/12/09 03:06:59;;;;;;;;;32.20;29.40;;;;;7.12;46.88;98442.09;6156802;28;96749;-58
2020/12/09 03:10:00;;;;;;;;;35.60;30.00;;;;;7.21;46.73;98437.31;6168172;28;97504;-58
2020/12/09 03:13:02;;;;;;;;;39.00;32.00;;;;;7.23;46.67;98444.09;6149620;28;97069;-58
2020/12/09 03:16:03;;;;;;;;;33.25;30.00;;;;;7.09;46.82;98449.69;6144793;28;97453;-58
2020/12/09 03:19:05;;;;;;;;;38.60;32.00;;;;;7.09;46.87;98452.38;6144179;28;97328;-58
2020/12/09 03:22:06;;;;;;;;;35.00;30.20;;;;;7.02;47.21;98446.22;6144224;28;97736;-58
2020/12/09 03:25:08;;;;;;;;;32.60;30.00;;;;;7.04;47.19;98434.25;6159772;28;97338;-58
2020/12/09 03:28:09;;;;;;;;;37.00;32.00;;;;;6.96;46.86;98438.00;6168734;28;97069;-58
2020/12/09 03:31:11;;;;;;;;;32.60;30.00;;;;;6.84;47.71;98436.97;6168652;28;97514;-58
2020/12/09 03:34:12;;;;;;;;;37.50;31.75;;;;;6.90;47.49;98446.03;6168489;28;98145;-58
2020/12/09 03:37:14;;;;;;;;;34.60;31.20;;;;;6.94;47.36;98445.41;6160113;28;97578;-58
2020/12/09 03:40:15;;;;;;;;;38.00;32.00;;;;;6.45;46.95;98378.13;6143744;28;98161;-58
2020/12/09 03:43:17;;;;;;;;;34.80;30.80;;;;;6.92;47.28;98460.06;6143900;28;98535;-58
2020/12/09 03:46:18;;;;;;;;;38.40;32.00;;;;;6.78;47.49;98471.81;6143150;28;97246;-58
2020/12/09 03:49:19;;;;;;;;;35.00;30.25;;;;;6.78;47.37;98461.94;6143683;28;97312;-58
2020/12/09 03:52:21;;;;;;;;;41.50;33.00;;;;;6.87;47.13;98452.66;6167128;28;97470;-58
2020/12/09 03:55:22;;;;;;;;;35.60;30.60;;;;;6.88;47.33;98459.66;6168506;28;98109;-58
2020/12/09 03:58:23;;;;;;;;;36.80;31.20;;;;;6.87;47.50;98441.09;6166808;28;97494;-58
2020/12/09 04:01:25;;;;;;;;;37.20;32.00;;;;;6.94;47.16;98448.09;6149904;28;97249;-58
2020/12/09 04:04:26;;;;;;;;;39.40;33.60;;;;;6.99;46.83;98449.34;6143179;28;97912;-58
2020/12/09 04:07:28;;;;;;;;;32.40;28.00;;;;;6.91;47.33;98445.00;6142514;28;97493;-58
2020/12/09 04:10:29;;;;;;;;;37.40;31.40;;;;;6.87;47.24;98452.66;6151770;28;97539;-58
2020/12/09 04:13:31;;;;;;;;;32.67;30.00;;;;;6.83;47.19;98435.34;6161495;28;97731;-58
2020/12/09 04:16:32;;;;;;;;;34.00;30.25;;;;;6.82;47.31;98447.09;6162721;28;96576;-58
2020/12/09 04:19:33;;;;;;;;;32.50;28.50;;;;;6.86;47.39;98458.22;6145217;28;96818;-58
2020/12/09 04:22:36;;;;;;;;;32.40;29.40;;;;;6.76;47.52;98455.13;6138264;28;97449;-58
2020/12/09 04:25:37;;;;;;;;;36.00;28.60;;;;;6.69;47.33;98444.44;6145581;28;98470;-58
2020/12/09 04:28:39;;;;;;;;;33.20;29.80;;;;;6.75;47.38;98451.63;6163485;28;98494;-58
2020/12/09 04:31:40;;;;;;;;;32.00;27.40;;;;;6.27;47.13;98361.84;6163688;28;97015;-58
2020/12/09 04:34:41;;;;;;;;;32.00;27.00;;;;;6.78;47.20;98456.59;6163256;28;96763;-58
2020/12/09 04:37:45;;;;;;;;;37.20;30.00;;;;;6.54;47.72;98459.91;6163277;28;96587;-58
2020/12/09 04:40:47;;;;;;;;;30.40;28.40;;;;;6.58;47.78;98460.28;6163335;28;97185;-58
2020/12/09 04:43:49;;;;;;;;;34.20;30.00;;;;;6.34;48.20;98464.41;6164079;28;97479;-58
2020/12/09 04:46:52;;;;;;;;;32.40;29.00;;;;;6.28;48.65;98459.88;6163604;28;97378;-58
2020/12/09 04:50:05;;;;;;;;;36.80;32.40;;;;;6.23;49.34;98451.63;6161435;28;96912;-58
2020/12/09 04:53:20;;;;;;;;;37.40;30.00;;;;;6.11;49.02;98442.56;6153027;28;96658;-58
2020/12/09 04:56:31;;;;;;;;;42.60;33.60;;;;;5.99;49.82;98445.00;6138482;28;96525;-58
2020/12/09 04:59:40;;;;;;;;;35.00;32.00;;;;;6.20;49.42;98455.56;6141315;28;97521;-58
2020/12/09 05:02:44;;;;;;;;;33.80;30.00;;;;;6.06;49.35;98449.34;6145588;28;97195;-58
2020/12/09 05:05:47;;;;;;;;;40.40;31.00;;;;;6.13;49.31;98438.66;6138141;28;98640;-58
2020/12/09 05:08:56;;;;;;;;;30.60;28.00;;;;;5.93;49.17;98409.19;6137537;28;98335;-58
2020/12/09 05:12:04;;;;;;;;;36.00;32.00;;;;;5.96;49.79;98422.16;6137690;28;96598;-58
2020/12/09 05:15:07;;;;;;;;;35.00;31.00;;;;;6.27;49.39;98450.19;6138895;28;97165;-58
2020/12/09 05:18:10;;;;;;;;;38.40;33.00;;;;;6.25;49.94;98457.63;6137447;28;98357;-58
2020/12/09 05:21:16;;;;;;;;;37.00;30.40;;;;;6.17;49.19;98441.72;6136862;28;96560;-58
2020/12/09 05:24:19;;;;;;;;;30.00;29.00;;;;;6.23;49.64;98457.81;6136139;28;97049;-58
2020/12/09 05:27:21;;;;;;;;;35.00;30.00;;;;;6.20;49.50;98454.72;6137978;28;97588;-58
2020/12/09 05:30:45;;;;;;;;;37.50;32.00;;;;;6.20;49.40;98457.41;6147521;28;98416;-58
2020/12/09 05:33:48;;;;;;;;;38.00;32.00;;;;;6.28;49.28;98465.22;6144115;28;96781;-58
2020/12/09 05:36:51;;;;;;;;;42.40;33.00;;;;;6.31;49.64;98452.25;6137001;28;97527;-58
2020/12/09 05:39:54;;;;;;;;;37.25;31.75;;;;;6.37;49.52;98450.59;6137195;28;96446;-58
2020/12/09 05:42:56;;;;;;;;;36.60;32.00;;;;;6.21;49.53;98416.19;6157745;28;97046;-58
2020/12/09 05:46:06;;;;;;;;;28.67;26.33;;;;;6.65;48.52;98471.81;6161151;28;97139;-58
2020/12/09 05:49:28;;;;;;;;;34.25;29.25;;;;;6.63;48.69;98469.38;6160089;28;96598;-58
2020/12/09 05:52:29;;;;;;;;;36.50;31.00;;;;;6.42;49.60;98469.56;6136164;28;97626;-58
2020/12/09 05:55:31;;;;;;;;;37.50;32.00;;;;;6.47;49.00;98477.81;6137256;28;97488;-58
2020/12/09 05:58:32;;;;;;;;;36.80;31.40;;;;;6.24;49.78;98477.38;6136584;28;98720;-58
2020/12/09 06:01:34;;;;;;;;;36.80;31.60;;;;;6.28;49.96;98478.59;6136082;28;96860;-58
2020/12/09 06:04:46;;;;;;;;;37.20;30.00;;;;;6.25;50.01;98463.78;6135194;28;97319;-58
2020/12/09 06:07:48;;;;;;;;;35.00;29.00;;;;;6.23;50.66;98448.94;6140935;28;97166;-58
2020/12/09 06:11:00;;;;;;;;;32.00;29.60;;;;;6.38;50.34;98454.94;6153907;28;97478;-58
2020/12/09 06:14:01;;;;;;;;;34.00;30.00;;;;;6.53;50.34;98455.56;6158488;28;98566;-58
2020/12/09 06:17:03;;;;;;;;;33.25;30.00;;;;;6.39;49.90;98465.44;6153967;28;98618;-58
2020/12/09 06:20:04;;;;;;;;;38.20;30.60;;;;;6.32;50.00;98469.13;6137209;28;97522;-58
2020/12/09 06:23:11;;;;;;;;;32.20;29.20;;;;;6.27;50.42;98480.47;6135674;28;98662;-58
2020/12/09 06:26:12;;;;;;;;;33.60;30.00;;;;;6.27;50.44;98480.47;6135279;28;97107;-58
2020/12/09 06:29:21;;;;;;;;;33.60;30.00;;;;;6.20;50.93;98474.28;6154129;28;96492;-58
2020/12/09 06:32:22;;;;;;;;;33.80;30.00;;;;;6.33;51.12;98481.50;6146630;28;96605;-58
2020/12/09 06:35:24;;;;;;;;;34.50;30.00;;;;;6.23;51.13;98481.06;6151134;28;97456;-58
2020/12/09 06:38:25;;;;;;;;;33.40;31.20;;;;;6.36;50.52;98481.06;6156341;28;97625;-57
2020/12/09 06:41:26;;;;;;;;;36.40;32.00;;;;;6.34;51.09;98486.66;6139227;28;97013;-58
2020/12/09 06:44:29;;;;;;;;;39.00;31.40;;;;;6.38;51.09;98473.69;6148006;28;97182;-58
2020/12/09 06:47:32;;;;;;;;;33.00;30.00;;;;;6.38;50.11;98474.50;6169879;28;97055;-58
2020/12/09 06:50:33;;;;;;;;;35.50;32.00;;;;;6.48;50.24;98491.00;6153033;28;96614;-58
2020/12/09 06:53:34;;;;;;;;;36.00;31.40;;;;;6.55;50.09;98500.88;6157992;28;96462;-58
2020/12/09 06:56:36;;;;;;;;;44.20;33.20;;;;;6.40;50.06;98490.38;6159094;28;97630;-57
2020/12/09 06:59:37;;;;;;;;;32.75;28.00;;;;;6.53;49.54;98487.69;6148967;28;98061;-58
2020/12/09 07:02:43;;;;;;;;;39.25;31.50;;;;;6.53;49.66;98468.94;6168722;28;97245;-57
2020/12/09 07:05:45;;;;;;;;;39.00;32.20;;;;;6.75;49.97;98510.56;6180697;28;99167;-58
2020/12/09 07:08:47;;;;;;;;;36.20;31.00;;;;;6.75;49.37;98507.03;6168527;28;97352;-58
2020/12/09 07:11:53;;;;;;;;;38.00;32.00;;;;;6.85;49.01;98512.81;6168458;28;97257;-58
2020/12/09 07:14:56;;;;;;;;;36.60;31.00;;;;;6.81;49.24;98506.22;6173134;28;97089;-59
2020/12/09 07:17:58;;;;;;;;;36.25;31.75;;;;;6.82;49.49;98495.31;6150962;28;97424;-58
2020/12/09 07:20:59;;;;;;;;;41.20;32.60;;;;;6.92;48.90;98506.44;6149751;28;97268;-58
2020/12/09 07:24:01;;;;;;;;;34.40;31.40;;;;;6.83;49.01;98509.53;6158413;28;96951;-59
2020/12/09 07:27:03;;;;;;;;;41.80;33.00;;;;;6.67;49.24;98493.88;6172896;28;96461;-57
2020/12/09 07:30:07;;;;;;;;;36.20;30.20;;;;;6.80;49.25;98505.41;6179322;28;96861;-59
2020/12/09 07:33:15;;;;;;;;;39.00;32.50;;;;;6.77;49.11;98510.34;6171940;28;97216;-59
2020/12/09 07:36:16;;;;;;;;;35.40;31.60;;;;;6.69;50.03;98508.72;6181820;28;96575;-58
2020/12/09 07:39:34;;;;;;;;;33.40;30.00;;;;;6.58;49.65;98506.66;6169311;28;97613;-57
2020/12/09 07:42:36;;;;;;;;;39.00;32.00;;;;;6.63;50.75;98517.56;6175755;28;96916;-57
2020/12/09 07:45:40;;;;;;;;;31.00;30.00;;;;;6.66;50.43;98510.97;6158850;28;96909;-57
2020/12/09 07:48:42;;;;;;;;;38.40;32.00;;;;;6.66;49.49;98509.13;6187807;28;96472;-57
2020/12/09 07:51:45;;;;;;;;;38.00;32.00;;;;;6.66;49.30;98508.28;6168698;28;97208;-58
2020/12/09 07:54:47;;;;;;;;;39.20;31.40;;;;;6.56;49.54;98486.44;6172994;28;97634;-59
2020/12/09 07:57:49;;;;;;;;;39.20;32.60;;;;;6.72;49.26;98518.19;6171201;28;97192;-58
2020/12/09 08:00:50;;;;;;;;;41.80;32.40;;;;;6.74;49.51;98537.56;6177580;28;98200;-59
2020/12/09 08:03:52;;;;;;;;;37.20;31.20;;;;;6.75;48.93;98485.63;6177784;28;98126;-58
2020/12/09 08:06:54;;;;;;;;;35.60;29.20;;;;;6.96;48.95;98505.00;6172514;28;97470;-58
2020/12/09 08:10:09;;;;;;;;;36.00;30.00;;;;;6.91;49.41;98510.16;6170509;28;97007;-58
2020/12/09 08:13:14;;;;;;;;;36.60;31.20;;;;;7.02;48.38;98515.91;6173761;28;98634;-58
2020/12/09 08:16:16;;;;;;;;;38.40;33.00;;;;;7.08;48.15;98515.91;6177355;28;98243;-58
2020/12/09 08:19:18;;;;;;;;;37.00;32.00;;;;;6.33;48.35;98396.66;6176067;28;96563;-58
2020/12/09 08:22:19;;;;;;;;;38.40;31.20;;;;;6.99;48.99;98519.81;6169732;28;96606;-59
2020/12/09 08:25:22;;;;;;;;;37.80;32.00;;;;;6.85;47.90;98486.84;6172321;28;96539;-57
2020/12/09 08:28:25;;;;;;;;;35.60;30.00;;;;;7.07;48.36;98533.03;6178088;28;97560;-59
2020/12/09 08:31:27;;;;;;;;;35.00;30.00;;;;;7.10;48.93;98539.81;6151314;28;96687;-58
2020/12/09 08:34:29;;;;;;;;;35.00;29.80;;;;;7.19;49.42;98531.34;6150609;28;97059;-58
2020/12/09 08:37:30;;;;;;;;;38.00;31.50;;;;;7.19;48.39;98525.97;6149580;28;96889;-58
2020/12/09 08:40:31;;;;;;;;;35.60;30.00;;;;;7.22;48.57;98514.84;6150985;28;97474;-58
2020/12/09 08:43:35;;;;;;;;;36.50;32.00;;;;;7.34;48.46;98521.22;6149363;28;97386;-58
2020/12/09 08:46:37;;;;;;;;;38.00;30.50;;;;;7.22;47.65;98514.84;6150962;28;96717;-57
2020/12/09 08:49:38;;;;;;;;;40.20;34.00;;;;;7.17;48.35;98532.59;6140596;28;98699;-58
2020/12/09 08:52:39;;;;;;;;;39.20;31.60;;;;;7.10;48.78;98531.75;6150932;28;96914;-58
2020/12/09 08:55:42;;;;;;;;;41.00;33.00;;;;;7.15;48.11;98518.56;6155216;28;98498;-58
2020/12/09 08:58:44;;;;;;;;;42.60;34.00;;;;;7.08;48.08;98520.44;6148178;28;97267;-58
2020/12/09 09:01:45;;;;;;;;;36.80;31.60;;;;;7.12;48.58;98529.72;6172122;28;97049;-58
2020/12/09 09:04:47;;;;;;;;;38.00;31.60;;;;;7.11;48.07;98528.06;6169557;28;96592;-58
2020/12/09 09:07:49;;;;;;;;;38.20;32.00;;;;;7.10;48.15;98537.13;6170353;28;97725;-58
2020/12/09 09:10:52;;;;;;;;;39.40;32.40;;;;;7.01;47.96;98523.13;6176834;28;98555;-59
2020/12/09 09:14:03;;;;;;;;;35.20;30.00;;;;;7.06;48.83;98543.94;6249683;27;97299;-57
2020/12/09 09:17:05;;;;;;;;;39.00;31.60;;;;;7.19;47.74;98539.38;6204876;28;97430;-58
2020/12/09 09:20:07;;;;;;;;;36.00;31.80;;;;;7.05;49.17;98526.22;6210777;28;96629;-58
2020/12/09 09:23:09;;;;;;;;;35.25;30.00;;;;;7.00;48.08;98531.38;6205488;27;97157;-58
2020/12/09 09:26:11;;;;;;;;;37.00;30.00;;;;;6.81;48.90;98546.41;6217907;28;96974;-58
2020/12/09 09:29:13;;;;;;;;;31.00;27.00;;;;;6.67;48.69;98529.53;6211108;28;97465;-59
2020/12/09 09:32:14;;;;;;;;;37.00;30.00;;;;;6.61;48.94;98524.16;6220910;28;96963;-58
2020/12/09 09:35:17;;;;;;;;;37.00;31.00;;;;;6.88;48.64;98561.47;6217491;28;97447;-58
2020/12/09 09:38:19;;;;;;;;;36.50;32.00;;;;;7.05;48.41;98555.69;6210661;27;96976;-58
2020/12/09 09:41:20;;;;;;;;;37.60;32.60;;;;;7.20;47.99;98551.75;6195680;28;97059;-58
2020/12/09 09:44:23;;;;;;;;;43.00;32.75;;;;;7.36;47.79;98556.69;6212283;28;97286;-58
2020/12/09 09:47:24;;;;;;;;;39.80;33.80;;;;;7.49;47.21;98560.38;6214975;28;98538;-58
2020/12/09 09:50:26;;;;;;;;;41.60;33.00;;;;;7.34;47.29;98555.25;6221427;28;96642;-56
2020/12/09 09:53:27;;;;;;;;;39.00;31.00;;;;;7.32;47.36;98554.66;6198323;28;97349;-57
2020/12/09 09:56:29;;;;;;;;;39.00;32.00;;;;;7.38;47.45;98551.09;6223586;28;98774;-57
2020/12/09 09:59:31;;;;;;;;;35.60;31.00;;;;;7.30;47.52;98551.34;6214126;27;97151;-57
2020/12/09 10:02:33;;;;;;;;;39.00;32.00;;;;;7.25;47.24;98567.22;6220826;28;97411;-58
2020/12/09 10:05:35;;;;;;;;;36.20;31.00;;;;;7.17;47.66;98554.88;6215644;28;97244;-57
2020/12/09 10:08:36;;;;;;;;;37.00;31.40;;;;;7.29;47.41;98542.47;6198936;28;97595;-57
2020/12/09 10:11:39;;;;;;;;;42.67;33.33;;;;;7.40;47.45;98541.84;6201618;28;97504;-57
2020/12/09 10:14:40;;;;;;;;;35.50;31.75;;;;;7.44;47.37;98541.41;6202902;28;98523;-57
2020/12/09 10:17:41;;;;;;;;;40.80;33.00;;;;;7.43;47.15;98539.78;6212967;27;97480;-58
2020/12/09 10:20:43;;;;;;;;;39.00;32.00;;;;;7.55;47.18;98538.06;6209125;28;97231;-59
2020/12/09 10:23:45;;;;;;;;;41.00;32.00;;;;;7.63;46.88;98535.16;6202957;27;97471;-58
2020/12/09 10:26:47;;;;;;;;;37.00;32.00;;;;;7.77;47.08;98526.03;6191381;28;97175;-59
2020/12/09 10:29:50;;;;;;;;;39.00;32.00;;;;;7.62;47.31;98507.53;6205276;28;97088;-58
2020/12/09 10:32:52;;;;;;;;;42.00;32.60;;;;;7.72;46.73;98526.66;6203986;28;96883;-58
2020/12/09 10:35:53;;;;;;;;;40.50;33.00;;;;;7.89;46.44;98524.34;6176450;28;96679;-58
2020/12/09 10:38:55;;;;;;;;;34.60;31.00;;;;;7.78;46.73;98528.50;6193996;28;97458;-58
2020/12/09 10:41:56;;;;;;;;;44.60;35.00;;;;;7.86;46.20;98524.78;6193339;28;98073;-58
2020/12/09 10:44:58;;;;;;;;;41.00;35.00;;;;;7.75;46.46;98538.84;6191179;28;97582;-58
2020/12/09 10:47:59;;;;;;;;;38.00;33.00;;;;;7.87;46.66;98539.81;6193096;28;96535;-58
2020/12/09 10:51:04;;;;;;;;;42.80;35.00;;;;;7.67;46.79;98488.91;6189135;28;96567;-58
2020/12/09 10:54:05;;;;;;;;;41.40;35.00;;;;;7.77;47.00;98526.84;6191882;28;98430;-58
2020/12/09 10:57:07;;;;;;;;;45.00;35.00;;;;;7.78;46.55;98509.72;6186010;28;98551;-58
2020/12/09 11:00:08;;;;;;;;;42.75;33.00;;;;;7.79;46.85;98508.69;6199861;28;97680;-58
2020/12/09 11:03:18;;;;;;;;;41.25;33.25;;;;;7.81;47.36;98509.31;6186656;28;96916;-58
2020/12/09 11:06:32;;;;;;;;;35.40;30.00;;;;;7.83;48.34;98509.06;6188207;28;96523;-58
2020/12/09 11:09:54;;;;;;;;;43.80;35.00;;;;;7.93;47.49;98503.25;6178782;28;96646;-59
2020/12/09 11:12:55;;;;;;;;;43.75;34.25;;;;;7.93;47.13;98506.75;6194829;28;96660;-57
2020/12/09 11:15:57;;;;;;;;;42.00;33.60;;;;;7.95;47.17;98495.81;6177901;28;96925;-58
2020/12/09 11:18:58;;;;;;;;;45.00;35.00;;;;;7.74;47.00;98460.19;6181069;28;97493;-58
2020/12/09 11:22:00;;;;;;;;;47.00;38.00;;;;;7.74;46.53;98470.94;6183251;28;96602;-57
2020/12/09 11:25:03;;;;;;;;;46.00;36.00;;;;;7.98;46.89;98487.31;6179793;28;97094;-58
2020/12/09 11:28:05;;;;;;;;;43.00;34.00;;;;;7.86;46.31;98470.28;6176850;28;97210;-57
2020/12/09 11:31:07;;;;;;;;;45.75;35.75;;;;;7.83;46.01;98485.75;6173390;28;97602;-58
2020/12/09 11:34:08;;;;;;;;;43.25;33.25;;;;;7.84;46.36;98479.34;6175351;28;96890;-57
2020/12/09 11:37:10;;;;;;;;;44.60;35.60;;;;;7.90;46.45;98477.69;6178022;28;97178;-57
2020/12/09 11:40:11;;;;;;;;;44.60;35.00;;;;;7.52;46.76;98469.59;6180511;28;97639;-57
2020/12/09 11:43:13;;;;;;;;;38.20;32.00;;;;;7.62;46.87;98472.66;6176101;28;97402;-57
2020/12/09 11:46:15;;;;;;;;;44.80;35.60;;;;;7.76;46.56;98482.28;6182783;28;96955;-57
2020/12/09 11:49:17;;;;;;;;;42.00;33.00;;;;;7.50;46.63;98479.69;6175578;28;97318;-58
2020/12/09 11:52:18;;;;;;;;;42.00;34.00;;;;;7.50;46.90;98478.88;6182387;28;97464;-58
2020/12/09 11:55:20;;;;;;;;;43.20;34.60;;;;;7.54;47.34;98474.72;6172450;28;97165;-58
2020/12/09 11:58:21;;;;;;;;;40.80;34.80;;;;;7.50;46.94;98481.56;6181635;28;97284;-58
2020/12/09 12:01:24;;;;;;;;;45.00;36.00;;;;;7.59;47.12;98472.22;6175631;28;97378;-58
2020/12/09 12:04:25;;;;;;;;;45.20;36.60;;;;;7.14;47.34;98476.69;6186179;28;97425;-58
2020/12/09 12:07:27;;;;;;;;;49.00;38.00;;;;;7.21;47.59;98461.44;6194232;28;97342;-57
2020/12/09 12:10:29;;;;;;;;;44.40;34.00;;;;;7.33;47.30;98473.19;6188843;28;97447;-57
2020/12/09 12:13:30;;;;;;;;;45.60;36.20;;;;;7.41;47.21;98470.25;6186926;28;97629;-58
2020/12/09 12:16:33;;;;;;;;;41.00;33.00;;;;;7.36;47.10;98467.38;6178421;28;97518;-59
2020/12/09 12:19:35;;;;;;;;;47.50;36.50;;;;;7.43;46.98;98470.03;6181778;28;98349;-57
2020/12/09 12:22:37;;;;;;;;;41.40;35.00;;;;;7.51;46.95;98481.34;6191120;28;97425;-58
2020/12/09 12:25:38;;;;;;;;;47.00;36.00;;;;;7.57;46.51;98482.38;6192308;28;97449;-58
2020/12/09 12:28:43;;;;;;;;;46.60;35.00;;;;;7.57;46.76;98479.69;6188907;28;96951;-58
2020/12/09 12:31:45;;;;;;;;;43.80;35.20;;;;;7.60;46.54;98476.56;6177817;28;97387;-58
2020/12/09 12:34:46;;;;;;;;;45.00;35.00;;;;;7.69;46.61;98476.13;6170339;28;96701;-58
2020/12/09 12:37:48;;;;;;;;;44.25;34.00;;;;;7.67;46.37;98480.06;6183501;28;97158;-58
2020/12/09 12:40:50;;;;;;;;;45.00;34.33;;;;;7.53;46.73;98478.44;6179691;28;97572;-58
2020/12/09 12:43:52;;;;;;;;;39.40;33.60;;;;;7.60;46.59;98463.97;6181604;28;97605;-55
2020/12/09 12:46:53;;;;;;;;;41.50;34.50;;;;;7.50;46.44;98479.69;6186994;28;97053;-56
2020/12/09 12:49:54;;;;;;;;;45.00;35.00;;;;;7.45;46.69;98467.97;6193816;28;97323;-56
2020/12/09 12:52:56;;;;;;;;;44.40;34.20;;;;;7.48;46.54;98476.41;6203834;28;97495;-56
2020/12/09 12:55:57;;;;;;;;;42.60;33.60;;;;;7.40;46.82;98461.38;6191614;28;97345;-56
2020/12/09 12:58:59;;;;;;;;;43.50;35.00;;;;;7.47;46.53;98474.78;6184283;28;98673;-56
2020/12/09 13:02:01;;;;;;;;;44.50;35.00;;;;;7.38;46.51;98467.97;6187332;28;97153;-56
2020/12/09 13:05:03;;;;;;;;;44.80;35.60;;;;;7.39;46.73;98483.03;6178278;28;97503;-56
2020/12/09 13:08:05;;;;;;;;;42.40;34.00;;;;;7.27;46.89;98488.25;6173391;28;97468;-56
2020/12/09 13:11:08;;;;;;;;;40.00;35.00;;;;;7.34;47.04;98490.88;6178603;28;96905;-57
2020/12/09 13:14:09;;;;;;;;;43.20;36.00;;;;;7.33;46.80;98489.25;6172616;28;98149;-56
2020/12/09 13:17:10;;;;;;;;;45.00;35.00;;;;;7.18;46.87;98478.78;6198054;28;97474;-57
2020/12/09 13:20:12;;;;;;;;;39.60;33.00;;;;;7.15;47.62;98481.03;6177585;28;97206;-56
2020/12/09 13:23:13;;;;;;;;;43.67;34.67;;;;;7.10;48.05;98468.25;6188724;28;97190;-56
2020/12/09 13:26:16;;;;;;;;;38.00;33.00;;;;;6.95;47.59;98465.81;6188398;28;97583;-55
2020/12/09 13:29:17;;;;;;;;;44.25;34.50;;;;;6.96;47.57;98470.16;6177226;28;96865;-56
2020/12/09 13:32:18;;;;;;;;;44.40;33.80;;;;;6.91;47.54;98479.84;6182061;28;97427;-55
2020/12/09 13:35:20;;;;;;;;;35.25;29.25;;;;;6.90;47.59;98472.81;6179490;28;96591;-56
2020/12/09 13:38:21;;;;;;;;;46.40;36.00;;;;;6.84;47.65;98454.94;6185177;28;97421;-55
2020/12/09 13:41:23;;;;;;;;;41.00;33.40;;;;;6.90;47.61;98468.28;6181239;28;97145;-55
2020/12/09 13:44:24;;;;;;;;;47.00;36.00;;;;;6.90;47.48;98460.25;6181880;28;97221;-56
2020/12/09 13:47:26;;;;;;;;;44.00;36.50;;;;;6.92;47.69;98474.28;6176182;28;97059;-56
2020/12/09 13:50:27;;;;;;;;;46.60;36.00;;;;;6.86;47.41;98453.69;6185437;28;96650;-55
2020/12/09 13:53:29;;;;;;;;;44.00;34.40;;;;;6.87;47.53;98458.00;6174502;28;97336;-56
2020/12/09 13:56:50;;;;;;;;;45.00;33.40;;;;;6.95;47.47;98467.66;6180903;28;96806;-56
2020/12/09 13:59:52;;;;;;;;;42.20;34.20;;;;;6.97;47.64;98474.47;6180707;28;97106;-57
2020/12/09 14:02:53;;;;;;;;;43.00;35.00;;;;;6.90;47.45;98481.69;6185661;28;97441;-56
2020/12/09 14:05:55;;;;;;;;;45.00;35.00;;;;;6.80;46.96;98437.59;6183003;28;97148;-57
2020/12/09 14:08:57;;;;;;;;;45.00;35.40;;;;;7.10;46.80;98473.63;6177455;28;98739;-56